Time;durP1;ratioP1;P1;durP2;ratioP2;P2;SDS_P1;SDS_P2;PMS_P1;PMS_P2;Temp;Humidity;BMP_temperature;BMP_pressure;BME280_temperature;BME280_humidity;BME280_pressure;Samples;Min_cycle;Max_cycle;Signal;HPM_P1;HPM_P2
2022/10/13 00:00:52;;;;;;;23.65;6.82;;;;;;;7.82;58.75;101589.13;4877440;29;20059;-66
2022/10/13 00:03:19;;;;;;;17.80;6.10;;;;;;;7.84;58.80;101581.88;4878252;29;20493;-66
2022/10/13 00:05:48;;;;;;;19.77;6.80;;;;;;;7.84;58.72;101581.88;4878247;29;20057;-66
2022/10/13 00:08:19;;;;;;;22.45;6.05;;;;;;;7.76;59.17;101581.59;4880303;29;20053;-74
2022/10/13 00:10:47;;;;;;;14.43;6.25;;;;;;;7.71;59.35;101586.44;4885080;29;20045;-73
2022/10/13 00:13:15;;;;;;;22.85;6.72;;;;;;;7.68;59.43;101589.38;4885309;29;20053;-73
2022/10/13 00:15:44;;;;;;;19.80;6.75;;;;;;;7.75;58.93;101582.56;4885145;29;20053;-74
2022/10/13 00:18:12;;;;;;;21.55;6.35;;;;;;;7.66;59.33;101586.81;4884579;29;20060;-74
2022/10/13 00:20:47;;;;;;;21.70;7.03;;;;;;;7.65;59.10;101580.63;4884339;29;20049;-74
2022/10/13 00:23:15;;;;;;;14.32;5.88;;;;;;;7.61;59.24;101570.31;4884921;29;20417;-73
2022/10/13 00:25:44;;;;;;;14.10;5.75;;;;;;;7.62;59.48;101569.31;4885009;29;20045;-74
2022/10/13 00:28:11;;;;;;;18.83;5.28;;;;;;;7.59;59.36;101570.41;4885078;29;20413;-74
2022/10/13 00:30:38;;;;;;;16.63;6.00;;;;;;;7.62;59.13;101569.31;4884481;29;20037;-74
2022/10/13 00:33:05;;;;;;;16.85;6.10;;;;;;;7.50;60.01;101575.59;4886480;29;20049;-74
2022/10/13 00:35:32;;;;;;;17.60;5.90;;;;;;;7.47;59.90;101581.22;4886119;29;20048;-74
2022/10/13 00:37:59;;;;;;;21.65;5.68;;;;;;;7.44;60.14;101568.94;4861519;29;20053;-74
2022/10/13 00:40:25;;;;;;;21.65;6.93;;;;;;;7.37;60.30;101570.38;4883370;29;20053;-74
2022/10/13 00:42:52;;;;;;;17.65;6.85;;;;;;;7.31;60.51;101573.53;4884245;29;20049;-73
2022/10/13 00:45:23;;;;;;;24.55;6.07;;;;;;;7.33;60.17;101567.09;4886229;29;20410;-73
2022/10/13 00:47:59;;;;;;;19.55;6.57;;;;;;;7.35;60.26;101570.50;4880051;29;20517;-74
2022/10/13 00:50:38;;;;;;;22.23;5.57;;;;;;;7.27;60.51;101572.91;4884918;29;20050;-74
2022/10/13 00:53:06;;;;;;;17.75;6.32;;;;;;;7.38;60.30;101566.75;4884141;29;20053;-73
2022/10/13 00:55:35;;;;;;;24.63;7.28;;;;;;;7.31;60.37;101565.53;4884694;29;20422;-73
2022/10/13 00:58:04;;;;;;;19.30;5.95;;;;;;;7.35;60.09;101557.16;4884405;29;20100;-73
2022/10/13 01:00:33;;;;;;;14.75;6.45;;;;;;;7.22;60.30;101558.22;4884557;29;20529;-68
2022/10/13 01:03:01;;;;;;;26.70;7.05;;;;;;;7.24;60.74;101558.97;4884560;29;20059;-73
2022/10/13 01:09:15;;;;;;;23.08;6.05;;;;;;;7.28;60.57;101563.94;4884947;29;20105;-73
2022/10/13 01:12:04;;;;;;;20.00;5.82;;;;;;;7.22;60.78;101559.06;4883241;29;20391;-74
2022/10/13 01:14:54;;;;;;;19.08;6.85;;;;;;;7.13;61.05;101560.63;4883006;29;20064;-74
2022/10/13 01:17:55;;;;;;;17.17;6.07;;;;;;;7.08;61.04;101561.94;4881645;29;20056;-74
2022/10/13 01:20:37;;;;;;;27.63;6.97;;;;;;;7.06;61.07;101555.88;4882068;29;20048;-74
2022/10/13 01:23:15;;;;;;;22.23;6.25;;;;;;;6.99;61.16;101550.16;4882750;29;20053;-74
2022/10/13 01:26:03;;;;;;;20.90;6.15;;;;;;;7.14;60.86;101554.31;4881542;29;20071;-74
2022/10/13 01:28:50;;;;;;;16.15;6.50;;;;;;;6.94;61.42;101552.31;4882750;29;20041;-72
2022/10/13 01:31:46;;;;;;;24.40;5.90;;;;;;;6.96;61.61;101547.72;4884737;29;20048;-74
2022/10/13 01:34:25;;;;;;;15.35;6.53;;;;;;;7.01;61.60;101547.34;4884425;29;20053;-74
2022/10/13 01:37:02;;;;;;;20.27;6.63;;;;;;;6.97;61.23;101546.75;4883727;29;20490;-74
2022/10/13 01:39:41;;;;;;;19.25;6.20;;;;;;;6.92;61.55;101538.25;4883085;29;20051;-73
2022/10/13 01:42:24;;;;;;;26.35;5.68;;;;;;;6.97;61.44;101538.75;4882441;29;20061;-74
2022/10/13 01:44:57;;;;;;;15.98;6.05;;;;;;;6.97;61.53;101536.06;4882389;29;20052;-74
2022/10/13 01:47:25;;;;;;;22.83;6.55;;;;;;;6.88;61.46;101529.63;4881283;29;20509;-74
2022/10/13 01:49:54;;;;;;;18.13;6.25;;;;;;;6.92;61.38;101527.59;4882154;29;20049;-74
2022/10/13 01:52:25;;;;;;;23.73;6.90;;;;;;;6.71;62.05;101524.72;4882206;29;20081;-74
2022/10/13 01:54:53;;;;;;;19.88;6.05;;;;;;;6.98;61.35;101520.91;4881809;29;20049;-74
2022/10/13 01:57:30;;;;;;;23.13;7.35;;;;;;;7.05;61.22;101522.13;4843539;29;20050;-74
2022/10/13 02:00:00;;;;;;;23.65;6.32;;;;;;;6.97;61.68;101514.72;4843881;29;20054;-73
2022/10/13 02:02:41;;;;;;;24.58;6.65;;;;;;;6.97;61.45;101516.56;4845164;29;20494;-74
2022/10/13 02:05:17;;;;;;;25.73;6.65;;;;;;;7.03;61.41;101516.94;4842867;29;20524;-74
2022/10/13 02:07:52;;;;;;;17.42;6.05;;;;;;;7.05;61.05;101512.34;4843659;29;20448;-74
2022/10/13 02:10:27;;;;;;;19.10;6.05;;;;;;;6.84;61.71;101503.28;4848098;29;20050;-67
2022/10/13 02:13:01;;;;;;;21.77;6.57;;;;;;;6.86;61.87;101506.72;4843000;29;20069;-67
2022/10/13 02:15:50;;;;;;;24.55;6.68;;;;;;;6.84;61.83;101505.97;4841876;29;20060;-67
2022/10/13 02:18:21;;;;;;;22.63;5.97;;;;;;;6.81;61.93;101508.88;4842554;29;20435;-67
2022/10/13 02:20:49;;;;;;;20.35;6.78;;;;;;;6.93;61.60;101498.13;4842708;29;20080;-63
2022/10/13 02:23:17;;;;;;;23.38;6.22;;;;;;;6.86;61.83;101496.88;4843246;29;20050;-63
2022/10/13 02:25:46;;;;;;;18.92;6.22;;;;;;;6.89;61.94;101495.81;4843982;29;20050;-74
2022/10/13 02:28:14;;;;;;;22.95;7.15;;;;;;;6.94;61.91;101497.16;4847486;29;20054;-73
2022/10/13 02:30:40;;;;;;;22.50;6.80;;;;;;;6.99;61.75;101495.97;4829989;29;20495;-74
2022/10/13 02:33:08;;;;;;;20.02;6.28;;;;;;;6.95;61.69;101498.00;4847290;29;20081;-74
2022/10/13 02:35:34;;;;;;;18.55;6.07;;;;;;;6.87;61.76;101493.25;4847861;29;20057;-74
2022/10/13 02:38:01;;;;;;;25.73;7.82;;;;;;;6.73;62.61;101479.25;4846991;29;20065;-72
2022/10/13 02:40:27;;;;;;;22.58;7.07;;;;;;;6.76;62.47;101485.22;4847749;29;20057;-73
2022/10/13 02:42:54;;;;;;;20.15;6.53;;;;;;;6.76;62.22;101479.03;4847000;29;20053;-75
2022/10/13 02:45:21;;;;;;;20.75;7.15;;;;;;;6.67;62.59;101477.94;4847585;29;21604;-73
2022/10/13 02:47:47;;;;;;;18.20;5.97;;;;;;;6.64;62.48;101471.00;4847153;29;20050;-72
2022/10/13 02:50:14;;;;;;;17.02;6.18;;;;;;;6.66;62.59;101473.53;4847309;29;20053;-74
2022/10/13 02:52:41;;;;;;;20.88;7.05;;;;;;;6.61;62.68;101476.56;4846904;29;20129;-74
2022/10/13 02:55:08;;;;;;;20.95;7.40;;;;;;;6.57;62.77;101469.78;4852735;29;20058;-74
2022/10/13 02:57:34;;;;;;;19.38;7.20;;;;;;;6.57;63.10;101469.78;4885234;29;20060;-72
2022/10/13 03:00:01;;;;;;;20.17;6.60;;;;;;;6.59;62.74;101465.16;4884104;29;20057;-70
2022/10/13 03:02:27;;;;;;;18.55;7.88;;;;;;;6.60;62.92;101472.22;4885437;29;20052;-74
2022/10/13 03:04:54;;;;;;;20.83;7.00;;;;;;;6.59;63.10;101469.66;4885750;29;20053;-74
2022/10/13 03:07:21;;;;;;;16.08;6.53;;;;;;;6.58;62.81;101465.28;4884588;29;20060;-73
2022/10/13 03:09:47;;;;;;;29.10;7.20;;;;;;;6.54;63.11;101464.66;4884067;29;20056;-73
2022/10/13 03:12:14;;;;;;;15.48;6.70;;;;;;;6.52;63.27;101460.41;4883259;29;20053;-74
2022/10/13 03:14:40;;;;;;;18.65;6.95;;;;;;;6.52;63.10;101465.75;4883902;29;20446;-74
2022/10/13 03:17:07;;;;;;;17.85;7.10;;;;;;;6.51;63.05;101459.56;4882529;29;20083;-75
2022/10/13 03:19:38;;;;;;;;;;;;;;;6.47;63.34;101463.44;4883445;29;20085;-72
2022/10/13 03:22:05;;;;;;;14.30;5.60;;;;;;;6.54;62.98;101464.66;4882713;29;19930;-73
2022/10/13 03:24:31;;;;;;;19.27;6.88;;;;;;;6.48;63.06;101454.47;4884449;29;20053;-72
2022/10/13 03:26:58;;;;;;;17.38;6.32;;;;;;;6.52;63.36;101458.59;4883372;29;20052;-73
2022/10/13 03:29:24;;;;;;;22.30;6.90;;;;;;;6.39;63.55;101449.81;4883370;29;20459;-73
2022/10/13 03:31:51;;;;;;;17.85;7.35;;;;;;;6.35;63.82;101459.84;4883517;29;20049;-72
2022/10/13 03:34:19;;;;;;;18.05;7.28;;;;;;;6.36;63.76;101466.06;4883860;29;20493;-72
2022/10/13 03:36:45;;;;;;;24.23;7.38;;;;;;;6.42;63.61;101457.59;4883026;29;20053;-73
2022/10/13 03:39:12;;;;;;;23.55;7.15;;;;;;;6.44;63.67;101453.84;4881898;29;20048;-73
2022/10/13 03:41:39;;;;;;;13.38;6.15;;;;;;;6.37;63.73;101449.09;4882597;29;20500;-73
2022/10/13 03:44:06;;;;;;;18.02;7.18;;;;;;;6.35;63.57;101451.84;4882782;29;20056;-73
2022/10/13 03:46:32;;;;;;;21.17;7.32;;;;;;;6.40;63.51;101444.38;4882633;29;20049;-72
2022/10/13 03:48:59;;;;;;;23.20;7.70;;;;;;;6.36;63.58;101439.41;4882118;29;20144;-73
2022/10/13 03:51:25;;;;;;;24.33;7.90;;;;;;;6.37;63.51;101446.44;4882843;29;20442;-73
2022/10/13 03:53:52;;;;;;;20.63;7.38;;;;;;;6.39;63.66;101441.81;4867354;29;20052;-73
2022/10/13 03:56:22;;;;;;;18.80;7.95;;;;;;;6.38;63.49;101434.78;4883152;29;20056;-73
2022/10/13 03:58:55;;;;;;;28.52;8.32;;;;;;;6.38;63.85;101437.47;4883743;29;20101;-75
2022/10/13 04:01:24;;;;;;;20.35;7.43;;;;;;;6.40;63.67;101444.38;4883388;29;20057;-73
2022/10/13 04:03:53;;;;;;;22.15;7.38;;;;;;;6.55;63.34;101439.69;4883123;29;20046;-73
2022/10/13 04:06:20;;;;;;;20.13;7.45;;;;;;;6.59;63.01;101435.81;4883350;29;20421;-75
2022/10/13 04:08:47;;;;;;;22.77;7.65;;;;;;;6.55;63.52;101429.03;4884014;29;20049;-71
2022/10/13 04:11:15;;;;;;;24.13;8.13;;;;;;;6.51;63.28;101434.72;4884344;29;20053;-73
2022/10/13 04:13:42;;;;;;;20.88;7.70;;;;;;;6.58;63.31;101436.81;4877215;29;20072;-66
2022/10/13 04:16:19;;;;;;;18.98;8.00;;;;;;;6.51;63.40;101435.56;4877353;29;20402;-70
2022/10/13 04:18:51;;;;;;;18.65;7.80;;;;;;;6.53;63.62;101431.00;4878120;29;20513;-71
2022/10/13 04:21:17;;;;;;;18.20;7.65;;;;;;;6.62;63.02;101429.41;4877413;29;20041;-71
2022/10/13 04:23:43;;;;;;;21.05;8.55;;;;;;;6.57;63.28;101432.44;4877572;29;20053;-71
2022/10/13 04:26:16;;;;;;;17.65;7.07;;;;;;;6.64;63.04;101439.00;4876698;29;20517;-69
2022/10/13 04:28:44;;;;;;;19.33;8.02;;;;;;;6.62;63.25;101437.41;4877414;29;20052;-69
2022/10/13 04:31:11;;;;;;;23.85;8.35;;;;;;;6.53;63.53;101427.44;4876377;29;20056;-69
2022/10/13 04:33:37;;;;;;;28.70;8.13;;;;;;;6.62;63.43;101427.59;4876906;29;20049;-71
2022/10/13 04:36:09;;;;;;;26.75;7.63;;;;;;;6.47;63.82;101418.97;4877240;29;20053;-70
2022/10/13 04:38:35;;;;;;;;;;;;;;;6.43;64.31;101422.00;4877757;29;20060;-72
2022/10/13 04:41:04;;;;;;;26.15;7.93;;;;;;;6.65;63.50;101418.53;4878592;29;19931;-71
2022/10/13 04:43:32;;;;;;;20.25;8.43;;;;;;;6.66;63.21;101412.22;4877576;29;20053;-71
2022/10/13 04:46:07;;;;;;;27.50;7.63;;;;;;;6.65;63.59;101416.72;4876607;29;20071;-70
2022/10/13 04:48:33;;;;;;;17.90;8.80;;;;;;;6.65;63.51;101418.53;4877162;29;20387;-70
2022/10/13 04:51:06;;;;;;;20.80;8.40;;;;;;;6.68;63.50;101412.97;4876713;29;20049;-69
2022/10/13 04:53:33;;;;;;;19.42;7.45;;;;;;;6.58;63.60;101414.63;4877317;29;20051;-70
2022/10/13 04:56:02;;;;;;;23.20;8.10;;;;;;;6.55;63.74;101409.53;4877757;29;20130;-69
2022/10/13 04:58:29;;;;;;;20.55;8.30;;;;;;;6.63;63.92;101418.66;4877659;29;20064;-71
2022/10/13 05:00:56;;;;;;;27.63;9.43;;;;;;;6.49;64.01;101413.50;4878034;29;20056;-70
2022/10/13 05:03:23;;;;;;;26.70;8.80;;;;;;;6.21;64.99;101404.91;4876768;29;20505;-69
2022/10/13 05:05:51;;;;;;;28.55;8.93;;;;;;;6.50;64.41;101401.91;4876385;29;20498;-69
2022/10/13 05:08:18;;;;;;;22.88;8.73;;;;;;;6.51;64.24;101410.75;4876400;29;20041;-71
2022/10/13 05:11:01;;;;;;;26.13;8.95;;;;;;;6.54;64.32;101405.19;4877949;29;20053;-63
2022/10/13 05:13:29;;;;;;;22.70;8.50;;;;;;;6.53;64.09;101404.34;4877537;29;20053;-63
2022/10/13 05:15:56;;;;;;;30.02;9.35;;;;;;;6.50;64.08;101404.56;4877561;29;20048;-62
2022/10/13 05:18:23;;;;;;;16.08;8.13;;;;;;;6.60;64.08;101402.00;4877638;29;20051;-62
2022/10/13 05:20:49;;;;;;;33.20;13.68;;;;;;;6.63;64.12;101389.34;4877140;29;20057;-62
2022/10/13 05:23:16;;;;;;;32.55;10.02;;;;;;;6.37;64.95;101390.47;4876573;29;20442;-63
2022/10/13 05:25:43;;;;;;;21.17;9.27;;;;;;;6.57;64.36;101389.78;4877722;29;20049;-62
2022/10/13 05:28:10;;;;;;;22.80;10.02;;;;;;;6.54;64.46;101392.69;4877044;29;20064;-64
2022/10/13 05:30:36;;;;;;;24.38;9.02;;;;;;;6.69;64.00;101388.84;4876789;29;20109;-62
2022/10/13 05:33:03;;;;;;;24.42;10.15;;;;;;;6.77;63.98;101395.38;4877983;29;20060;-63
2022/10/13 05:35:30;;;;;;;25.15;9.57;;;;;;;6.72;63.99;101398.41;4877561;29;20045;-62
2022/10/13 05:37:56;;;;;;;25.30;9.98;;;;;;;6.75;64.10;101398.19;4876999;29;20374;-63
2022/10/13 05:40:23;;;;;;;33.45;10.18;;;;;;;6.78;63.82;101391.78;4877435;29;20052;-63
2022/10/13 05:42:50;;;;;;;23.25;9.35;;;;;;;6.93;63.26;101393.22;4878880;29;20049;-62
2022/10/13 05:45:18;;;;;;;26.13;9.35;;;;;;;6.88;63.65;101392.75;4881539;29;20049;-62
2022/10/13 05:47:45;;;;;;;32.17;9.85;;;;;;;6.88;63.80;101387.44;4879736;29;20055;-63
2022/10/13 05:50:11;;;;;;;30.75;11.18;;;;;;;6.91;63.66;101396.03;4880013;29;20048;-69
2022/10/13 05:52:38;;;;;;;28.42;10.57;;;;;;;6.94;63.45;101386.91;4879792;29;20060;-70
2022/10/13 05:55:09;;;;;;;26.77;10.55;;;;;;;6.86;63.68;101392.00;4879801;29;20516;-71
2022/10/13 05:57:39;;;;;;;29.70;10.07;;;;;;;6.95;63.55;101391.31;4880901;29;20374;-70
2022/10/13 06:00:09;;;;;;;26.75;10.65;;;;;;;6.88;63.51;101392.75;4879674;29;20045;-70
2022/10/13 06:02:46;;;;;;;28.83;10.13;;;;;;;6.99;63.31;101395.44;4880216;29;20060;-67
2022/10/13 06:05:17;;;;;;;37.72;11.30;;;;;;;6.95;63.46;101393.97;4880267;29;20051;-71
2022/10/13 06:07:45;;;;;;;32.30;11.60;;;;;;;6.95;63.84;101399.31;4880679;29;20135;-70
2022/10/13 06:10:11;;;;;;;24.70;10.75;;;;;;;6.94;63.51;101393.13;4871356;29;20056;-70
2022/10/13 06:12:38;;;;;;;27.17;11.50;;;;;;;7.01;63.46;101393.47;4875251;29;20053;-68
2022/10/13 06:15:05;;;;;;;21.10;10.13;;;;;;;6.97;63.57;101392.03;4881266;29;20060;-71
2022/10/13 06:17:35;;;;;;;25.25;10.25;;;;;;;6.91;63.88;101392.50;4880816;29;20049;-71
2022/10/13 06:20:04;;;;;;;22.98;10.35;;;;;;;6.99;63.35;101392.75;4880684;29;20104;-70
2022/10/13 06:22:33;;;;;;;23.65;10.13;;;;;;;6.97;63.19;101394.69;4879641;29;20048;-70
2022/10/13 06:24:59;;;;;;;28.23;11.45;;;;;;;6.99;63.54;101384.75;4880552;29;20071;-71
2022/10/13 06:27:26;;;;;;;30.00;11.18;;;;;;;7.00;63.65;101391.78;4881443;29;20087;-71
2022/10/13 06:29:53;;;;;;;32.70;12.32;;;;;;;6.61;64.46;101391.25;4880015;29;20072;-72
2022/10/13 06:32:19;;;;;;;33.30;12.13;;;;;;;6.28;65.91;101392.00;4880003;29;20053;-71
2022/10/13 06:34:47;;;;;;;33.30;12.90;;;;;;;6.51;65.70;101400.06;4878137;29;20416;-71
2022/10/13 06:37:13;;;;;;;35.35;12.18;;;;;;;6.53;65.86;101403.47;4880265;29;20052;-71
2022/10/13 06:39:39;;;;;;;24.50;11.65;;;;;;;6.34;65.95;101398.69;4878950;29;20056;-71
2022/10/13 06:42:06;;;;;;;25.77;12.32;;;;;;;6.47;65.95;101405.63;4877924;29;20060;-71
2022/10/13 06:44:33;;;;;;;32.28;12.13;;;;;;;6.37;66.54;101398.47;4877821;29;20053;-71
2022/10/13 06:47:01;;;;;;;32.15;13.00;;;;;;;6.53;65.87;101396.34;4878512;29;20049;-71
2022/10/13 06:49:28;;;;;;;28.13;11.73;;;;;;;6.63;65.95;101392.00;4878939;29;20139;-71
2022/10/13 06:51:55;;;;;;;37.92;12.85;;;;;;;6.34;66.25;101404.03;4878432;29;20045;-71
2022/10/13 06:54:21;;;;;;;24.80;11.77;;;;;;;6.97;65.28;101404.50;4877854;29;20053;-71
2022/10/13 06:56:48;;;;;;;34.05;12.73;;;;;;;6.93;65.09;101395.91;4861388;29;20045;-72
2022/10/13 06:59:14;;;;;;;29.77;12.50;;;;;;;6.96;65.20;101390.31;4870486;29;20052;-71
2022/10/13 07:01:41;;;;;;;29.13;13.00;;;;;;;7.19;64.41;101381.38;4878084;29;20056;-71
2022/10/13 07:04:08;;;;;;;31.05;13.70;;;;;;;7.30;63.96;101393.84;4877890;29;20049;-70
2022/10/13 07:06:35;;;;;;;31.95;12.60;;;;;;;7.10;64.54;101398.09;4879530;29;20053;-71
2022/10/13 07:09:06;;;;;;;31.50;14.02;;;;;;;7.16;64.25;101386.09;4877945;29;20045;-71
2022/10/13 07:11:33;;;;;;;36.17;14.15;;;;;;;7.26;64.60;101391.56;4878465;29;20056;-71
2022/10/13 07:13:59;;;;;;;38.30;13.25;;;;;;;7.36;64.40;101392.50;4877854;29;20490;-71
2022/10/13 07:16:27;;;;;;;22.98;13.02;;;;;;;6.94;65.47;101378.91;4877954;29;20055;-71
2022/10/13 07:18:53;;;;;;;38.63;13.77;;;;;;;7.12;65.24;101379.31;4878471;29;20057;-71
2022/10/13 07:21:20;;;;;;;28.80;12.70;;;;;;;7.32;65.06;101375.03;4877729;29;20536;-71
2022/10/13 07:23:47;;;;;;;30.20;12.55;;;;;;;7.64;63.58;101378.63;4878018;29;20049;-71
2022/10/13 07:26:14;;;;;;;34.78;14.63;;;;;;;7.44;64.46;101379.41;4878086;29;20048;-71
2022/10/13 07:28:42;;;;;;;30.58;12.60;;;;;;;7.79;63.54;101373.00;4878174;29;20390;-71
2022/10/13 07:31:12;;;;;;;38.08;12.70;;;;;;;8.01;62.70;101372.09;4878253;29;20120;-71
2022/10/13 07:33:40;;;;;;;38.80;13.32;;;;;;;7.69;64.04;101378.25;4877614;29;20057;-72
2022/10/13 07:36:08;;;;;;;28.92;13.57;;;;;;;7.64;64.30;101365.28;4878518;29;20049;-72
2022/10/13 07:38:34;;;;;;;28.98;13.73;;;;;;;7.36;65.14;101369.34;4878012;29;20405;-71
2022/10/13 07:41:03;;;;;;;26.30;13.50;;;;;;;7.65;64.57;101366.13;4877785;29;20067;-71
2022/10/13 07:43:29;;;;;;;23.98;13.43;;;;;;;7.62;65.00;101356.53;4877931;29;20056;-71
2022/10/13 07:46:00;;;;;;;31.98;13.20;;;;;;;8.29;63.54;101362.63;4878817;29;20053;-71
2022/10/13 07:48:27;;;;;;;30.67;13.70;;;;;;;8.47;62.75;101361.06;4878774;29;20052;-72
2022/10/13 07:50:53;;;;;;;38.85;13.15;;;;;;;8.79;61.49;101363.66;4878299;29;20061;-72
2022/10/13 07:53:20;;;;;;;30.17;12.85;;;;;;;9.22;60.02;101367.06;4876823;29;20049;-72
2022/10/13 07:55:47;;;;;;;35.10;13.70;;;;;;;9.85;58.59;101356.94;4878238;29;20055;-72
2022/10/13 07:58:13;;;;;;;26.15;11.70;;;;;;;9.97;57.81;101360.34;4877364;29;20049;-71
2022/10/13 08:00:40;;;;;;;30.08;12.38;;;;;;;10.08;57.43;101356.66;4878152;29;20049;-72
2022/10/13 08:03:06;;;;;;;38.33;12.45;;;;;;;10.63;56.04;101351.53;4878938;29;20045;-72
2022/10/13 08:05:35;;;;;;;27.98;11.95;;;;;;;11.49;54.02;101359.38;4877060;29;20045;-72
2022/10/13 08:08:02;;;;;;;33.40;12.63;;;;;;;11.63;53.31;101361.53;4878799;29;20059;-72
2022/10/13 08:10:29;;;;;;;25.90;12.35;;;;;;;10.41;56.30;101353.53;4877997;29;20063;-72
2022/10/13 08:12:55;;;;;;;22.58;11.57;;;;;;;9.96;57.51;101348.78;4877116;29;20063;-72
2022/10/13 08:15:22;;;;;;;24.27;11.88;;;;;;;10.21;57.34;101341.97;4876986;29;20462;-72
2022/10/13 08:17:48;;;;;;;31.63;12.27;;;;;;;10.39;56.92;101347.47;4877183;29;20052;-72
2022/10/13 08:20:15;;;;;;;31.23;12.85;;;;;;;10.10;57.40;101344.81;4877215;29;20072;-71
2022/10/13 08:22:41;;;;;;;27.08;12.68;;;;;;;10.58;56.49;101343.06;4864678;29;20061;-69
2022/10/13 08:25:08;;;;;;;28.38;12.52;;;;;;;11.51;54.12;101342.09;4870726;29;20053;-69
2022/10/13 08:27:36;;;;;;;34.17;12.20;;;;;;;11.96;52.77;101345.75;4859106;29;20045;-69
2022/10/13 08:30:17;;;;;;;28.25;12.18;;;;;;;11.82;53.16;101342.59;4859080;29;20041;-69
2022/10/13 08:32:43;;;;;;;29.35;11.43;;;;;;;11.44;53.86;101335.63;4859193;29;20049;-69
2022/10/13 08:35:10;;;;;;;23.40;11.63;;;;;;;11.51;54.01;101328.66;4858459;29;20050;-69
2022/10/13 08:37:37;;;;;;;27.45;12.32;;;;;;;11.62;53.61;101339.22;4858249;29;20429;-69
2022/10/13 08:40:04;;;;;;;25.75;12.25;;;;;;;11.23;54.70;101338.56;4858384;29;20061;-69
2022/10/13 08:42:30;;;;;;;28.38;11.63;;;;;;;11.46;54.51;101334.50;4858587;29;20041;-69
2022/10/13 08:45:03;;;;;;;26.00;12.18;;;;;;;11.86;53.63;101329.69;4865866;29;20045;-69
2022/10/13 08:48:19;;;;;;;34.05;11.85;;;;;;;12.56;51.57;101335.16;4875901;29;20112;-69
2022/10/13 08:50:50;;;;;;;26.60;11.90;;;;;;;12.03;53.04;101330.69;4843332;29;20048;-69
2022/10/13 08:53:41;;;;;;;26.90;13.17;;;;;;;12.59;51.60;101327.59;4877361;29;20049;-69
2022/10/13 08:56:16;;;;;;;25.80;12.07;;;;;;;12.08;53.46;101325.72;4877185;29;20048;-69
2022/10/13 08:58:43;;;;;;;23.67;12.07;;;;;;;11.96;53.67;101325.09;4876882;29;20053;-69
2022/10/13 09:01:26;;;;;;;29.42;12.57;;;;;;;11.84;54.01;101311.06;4878007;29;20045;-69
2022/10/13 09:04:02;;;;;;;27.80;12.23;;;;;;;11.86;54.07;101311.75;4876653;29;20052;-70
2022/10/13 09:06:36;;;;;;;30.40;12.50;;;;;;;11.84;54.57;101311.06;4860690;29;20049;-70
2022/10/13 09:09:06;;;;;;;24.55;12.10;;;;;;;12.51;52.79;101300.63;4860695;29;20100;-69
2022/10/13 09:11:41;;;;;;;29.33;12.50;;;;;;;11.76;55.08;101302.94;4876316;29;20492;-69
2022/10/13 09:14:21;;;;;;;26.92;14.15;;;;;;;11.28;56.58;101305.91;4877192;29;20105;-69
2022/10/13 09:16:49;;;;;;;26.65;12.40;;;;;;;11.52;56.60;101305.31;4875064;29;20045;-69
2022/10/13 09:19:24;;;;;;;30.33;13.80;;;;;;;11.46;56.89;101310.31;4876440;29;20516;-69
2022/10/13 09:22:19;;;;;;;30.33;14.40;;;;;;;11.30;57.40;101302.06;4876867;29;20057;-70
2022/10/13 09:24:46;;;;;;;32.90;12.70;;;;;;;11.49;57.00;101308.31;4866193;29;20093;-69
2022/10/13 09:27:15;;;;;;;43.58;15.23;;;;;;;10.90;59.24;101311.34;4876859;29;20045;-69
2022/10/13 09:29:43;;;;;;;25.45;13.77;;;;;;;11.39;57.57;101309.22;4876600;29;20060;-69
2022/10/13 09:32:17;;;;;;;32.10;14.00;;;;;;;11.46;57.58;101307.63;4877062;29;20045;-69
2022/10/13 09:34:46;;;;;;;33.42;15.00;;;;;;;11.73;57.32;101313.13;4875902;29;20056;-69
2022/10/13 09:37:22;;;;;;;35.55;15.10;;;;;;;12.03;56.25;101309.19;4876348;29;20055;-69
2022/10/13 09:40:31;;;;;;;29.23;14.00;;;;;;;11.89;56.67;101308.72;4877118;29;20064;-69
2022/10/13 09:43:00;;;;;;;28.20;14.10;;;;;;;12.12;56.33;101310.94;4815857;29;20045;-69
2022/10/13 09:45:29;;;;;;;34.92;13.55;;;;;;;11.90;56.89;101305.06;4876373;29;20402;-69
2022/10/13 09:48:00;;;;;;;24.17;14.10;;;;;;;12.20;56.36;101316.38;4875597;29;20053;-69
2022/10/13 09:50:30;;;;;;;35.37;14.93;;;;;;;12.73;55.53;101311.84;4875803;29;20041;-69
2022/10/13 09:53:20;;;;;;;29.15;13.07;;;;;;;12.96;54.42;101306.78;4876169;29;20053;-70
2022/10/13 09:55:48;;;;;;;27.15;14.25;;;;;;;13.09;54.07;101302.63;4875774;29;20071;-69
2022/10/13 09:58:22;;;;;;;30.85;15.13;;;;;;;13.29;53.82;101307.75;4876501;29;20057;-69
2022/10/13 10:00:51;;;;;;;28.15;14.38;;;;;;;12.98;54.94;101304.78;4876114;29;20521;-69
2022/10/13 10:03:31;;;;;;;31.33;15.40;;;;;;;13.43;54.24;101308.97;4876010;29;20053;-69
2022/10/13 10:06:17;;;;;;;36.45;14.90;;;;;;;14.12;52.44;101298.81;4875804;29;20045;-69
2022/10/13 10:08:56;;;;;;;35.13;14.82;;;;;;;14.74;51.00;101309.88;4875990;29;20116;-69
2022/10/13 10:11:45;;;;;;;37.47;14.23;;;;;;;15.78;47.94;101307.81;4871016;29;20058;-70
2022/10/13 10:14:32;;;;;;;24.48;12.02;;;;;;;15.87;47.57;101304.88;4856820;29;20054;-69
2022/10/13 10:17:14;;;;;;;25.30;12.70;;;;;;;15.60;47.85;101298.09;4866181;29;20049;-70
2022/10/13 10:19:56;;;;;;;29.02;14.73;;;;;;;15.37;48.75;101300.81;4875952;29;20105;-71
2022/10/13 10:22:46;;;;;;;25.30;13.13;;;;;;;15.01;49.29;101290.50;4875301;29;20048;-69
2022/10/13 10:25:18;;;;;;;28.27;14.45;;;;;;;15.04;49.56;101294.72;4858981;29;20051;-69
2022/10/13 10:28:15;;;;;;;27.92;12.70;;;;;;;14.98;49.82;101287.28;4875155;29;20045;-69
2022/10/13 10:31:10;;;;;;;29.55;12.57;;;;;;;15.39;49.17;101279.81;4878488;29;20478;-69
2022/10/13 10:33:48;;;;;;;31.30;12.55;;;;;;;15.64;48.41;101285.97;4859759;29;20493;-70
2022/10/13 10:36:21;;;;;;;29.58;14.82;;;;;;;15.31;48.90;101285.28;4878983;29;20512;-70
2022/10/13 10:38:54;;;;;;;26.10;14.48;;;;;;;14.83;50.48;101279.09;4878938;29;20048;-69
2022/10/13 10:41:44;;;;;;;31.17;15.75;;;;;;;14.42;51.83;101272.94;4879232;29;20486;-69
2022/10/13 10:44:23;;;;;;;30.80;14.68;;;;;;;14.51;51.63;101270.06;4878759;29;20052;-72
2022/10/13 10:46:56;;;;;;;25.40;13.02;;;;;;;14.52;51.68;101252.81;4877925;29;20045;-72
2022/10/13 10:49:30;;;;;;;28.42;14.80;;;;;;;14.66;51.59;101253.97;4878846;29;20486;-74
2022/10/13 10:52:00;;;;;;;29.40;13.00;;;;;;;14.73;51.43;101254.16;4878353;29;20061;-72
2022/10/13 10:54:47;;;;;;;25.92;12.52;;;;;;;15.14;49.91;101253.97;4878223;29;20056;-72
2022/10/13 10:57:17;;;;;;;29.15;12.98;;;;;;;15.51;50.03;101250.53;4878205;29;20044;-71
2022/10/13 11:00:18;;;;;;;31.65;12.75;;;;;;;14.95;50.63;101252.56;4878458;29;20071;-72
2022/10/13 11:03:13;;;;;;;26.10;13.23;;;;;;;14.99;50.87;101248.47;4877358;29;20045;-72
2022/10/13 11:06:15;;;;;;;29.70;14.55;;;;;;;15.71;49.33;101240.09;4876597;29;20532;-72
2022/10/13 11:08:45;;;;;;;31.02;13.40;;;;;;;16.85;46.51;101229.94;4817898;29;20049;-72
2022/10/13 11:11:21;;;;;;;24.17;12.75;;;;;;;16.94;45.71;101231.53;4877808;29;20064;-72
2022/10/13 11:13:54;;;;;;;28.98;12.25;;;;;;;16.62;46.92;101225.50;4877458;29;20056;-72
2022/10/13 11:16:34;;;;;;;27.80;13.18;;;;;;;16.62;46.69;101225.50;4876864;29;20505;-72
2022/10/13 11:19:05;;;;;;;27.77;13.52;;;;;;;16.38;47.08;101223.03;4877720;29;20421;-72
2022/10/13 11:21:59;;;;;;;37.78;13.70;;;;;;;16.40;46.81;101226.38;4877960;29;20055;-72
2022/10/13 11:24:38;;;;;;;25.15;13.32;;;;;;;16.56;47.05;101230.81;4877875;29;20049;-72
2022/10/13 11:27:10;;;;;;;34.47;12.02;;;;;;;16.41;47.33;101228.91;4868174;29;20071;-72
2022/10/13 11:29:43;;;;;;;25.50;12.52;;;;;;;16.30;47.36;101221.28;4877880;29;20053;-72
2022/10/13 11:32:25;;;;;;;29.00;12.75;;;;;;;16.48;46.91;101223.59;4878439;29;20041;-72
2022/10/13 11:35:04;;;;;;;;;;;;;;;16.32;47.60;101215.66;4878111;29;20041;-71
2022/10/13 11:37:47;;;;;;;27.80;11.75;;;;;;;16.36;47.59;101212.38;4877794;29;19928;-72
2022/10/13 11:41:18;;;;;;;30.05;12.15;;;;;;;16.00;48.28;101211.44;4877362;29;20049;-72
2022/10/13 11:43:50;;;;;;;21.42;11.10;;;;;;;15.40;49.75;101211.22;4840003;29;20048;-71